sensor_id;sensor_type;location;lat;lon;timestamp;P1;P2;P0
51320;PMS5003;38732;49.556;6.286;2023-03-08T00:01:20;24.40;21.60;11.40
51320;PMS5003;38732;49.556;6.286;2023-03-08T00:03:50;34.00;28.60;15.40
51320;PMS5003;38732;49.556;6.286;2023-03-08T00:06:20;28.40;23.60;13.40
51320;PMS5003;38732;49.556;6.286;2023-03-08T00:08:49;40.80;29.60;18.40
51320;PMS5003;38732;49.556;6.286;2023-03-08T00:11:17;35.50;30.25;16.00
51320;PMS5003;38732;49.556;6.286;2023-03-08T00:13:45;36.25;28.75;15.75
51320;PMS5003;38732;49.556;6.286;2023-03-08T00:16:13;32.25;26.50;15.50
51320;PMS5003;38732;49.556;6.286;2023-03-08T00:18:42;24.25;15.00;5.00
51320;PMS5003;38732;49.556;6.286;2023-03-08T00:21:14;43.75;28.50;12.50
51320;PMS5003;38732;49.556;6.286;2023-03-08T00:23:44;24.80;20.00;11.40
51320;PMS5003;38732;49.556;6.286;2023-03-08T00:26:13;41.25;34.25;18.50
51320;PMS5003;38732;49.556;6.286;2023-03-08T00:28:41;31.00;24.50;13.00
51320;PMS5003;38732;49.556;6.286;2023-03-08T00:31:10;30.00;26.25;16.00
51320;PMS5003;38732;49.556;6.286;2023-03-08T00:33:39;39.00;31.00;16.20
51320;PMS5003;38732;49.556;6.286;2023-03-08T00:36:15;31.50;28.25;17.00
51320;PMS5003;38732;49.556;6.286;2023-03-08T00:38:45;26.00;20.40;11.00
51320;PMS5003;38732;49.556;6.286;2023-03-08T00:41:14;26.60;23.80;14.20
51320;PMS5003;38732;49.556;6.286;2023-03-08T00:43:42;25.25;17.00;9.50
51320;PMS5003;38732;49.556;6.286;2023-03-08T00:46:11;22.75;19.00;8.50
51320;PMS5003;38732;49.556;6.286;2023-03-08T00:48:41;24.50;21.75;12.00
51320;PMS5003;38732;49.556;6.286;2023-03-08T00:51:14;31.80;19.80;11.20
51320;PMS5003;38732;49.556;6.286;2023-03-08T00:53:43;19.00;19.00;11.40
51320;PMS5003;38732;49.556;6.286;2023-03-08T00:56:12;23.00;21.00;11.25
51320;PMS5003;38732;49.556;6.286;2023-03-08T00:58:40;22.75;18.50;11.00
51320;PMS5003;38732;49.556;6.286;2023-03-08T01:01:11;29.75;24.75;11.75
51320;PMS5003;38732;49.556;6.286;2023-03-08T01:03:42;26.00;26.00;15.40
51320;PMS5003;38732;49.556;6.286;2023-03-08T01:06:11;26.50;21.25;11.00
51320;PMS5003;38732;49.556;6.286;2023-03-08T01:08:40;23.00;22.00;10.60
51320;PMS5003;38732;49.556;6.286;2023-03-08T01:11:23;27.00;23.50;13.50
51320;PMS5003;38732;49.556;6.286;2023-03-08T01:13:53;21.00;19.20;12.00
51320;PMS5003;38732;49.556;6.286;2023-03-08T01:16:23;27.50;25.00;11.25
51320;PMS5003;38732;49.556;6.286;2023-03-08T01:18:53;20.00;14.80;11.00
51320;PMS5003;38732;49.556;6.286;2023-03-08T01:21:22;28.80;25.20;14.00
51320;PMS5003;38732;49.556;6.286;2023-03-08T01:23:51;25.40;25.00;14.00
51320;PMS5003;38732;49.556;6.286;2023-03-08T01:26:21;21.00;13.50;9.50
51320;PMS5003;38732;49.556;6.286;2023-03-08T01:28:51;27.20;21.80;13.20
51320;PMS5003;38732;49.556;6.286;2023-03-08T01:31:21;33.00;29.50;14.00
51320;PMS5003;38732;49.556;6.286;2023-03-08T01:33:54;30.60;27.20;13.20
51320;PMS5003;38732;49.556;6.286;2023-03-08T01:36:23;31.80;28.00;14.80
51320;PMS5003;38732;49.556;6.286;2023-03-08T01:38:53;24.40;21.80;11.00
51320;PMS5003;38732;49.556;6.286;2023-03-08T01:41:26;24.25;21.25;14.00
51320;PMS5003;38732;49.556;6.286;2023-03-08T01:43:57;21.80;19.00;12.00
51320;PMS5003;38732;49.556;6.286;2023-03-08T01:46:27;33.25;22.50;11.25
51320;PMS5003;38732;49.556;6.286;2023-03-08T01:59:54;28.40;25.20;12.20
51320;PMS5003;38732;49.556;6.286;2023-03-08T02:02:28;29.60;22.40;14.00
51320;PMS5003;38732;49.556;6.286;2023-03-08T02:05:03;28.00;23.60;13.60
51320;PMS5003;38732;49.556;6.286;2023-03-08T02:07:32;29.50;25.50;15.00
51320;PMS5003;38732;49.556;6.286;2023-03-08T02:10:00;15.25;8.50;5.00
51320;PMS5003;38732;49.556;6.286;2023-03-08T02:12:29;25.75;25.25;11.75
51320;PMS5003;38732;49.556;6.286;2023-03-08T02:14:58;26.40;20.20;11.80
51320;PMS5003;38732;49.556;6.286;2023-03-08T02:17:26;25.50;22.50;13.00
51320;PMS5003;38732;49.556;6.286;2023-03-08T02:20:00;27.80;22.60;14.20
51320;PMS5003;38732;49.556;6.286;2023-03-08T02:22:37;29.20;26.00;13.80
51320;PMS5003;38732;49.556;6.286;2023-03-08T02:25:15;24.00;21.80;14.20
51320;PMS5003;38732;49.556;6.286;2023-03-08T02:27:45;23.40;18.40;10.60
51320;PMS5003;38732;49.556;6.286;2023-03-08T02:30:15;30.75;24.25;16.00
51320;PMS5003;38732;49.556;6.286;2023-03-08T02:32:50;30.60;26.00;14.40
51320;PMS5003;38732;49.556;6.286;2023-03-08T02:35:18;28.00;23.00;12.50
51320;PMS5003;38732;49.556;6.286;2023-03-08T02:37:46;29.50;26.25;15.00
51320;PMS5003;38732;49.556;6.286;2023-03-08T02:40:15;24.25;18.50;14.00
51320;PMS5003;38732;49.556;6.286;2023-03-08T02:42:43;20.00;20.00;13.00
51320;PMS5003;38732;49.556;6.286;2023-03-08T02:45:11;30.50;21.50;13.00
51320;PMS5003;38732;49.556;6.286;2023-03-08T02:47:40;34.50;25.50;15.00
51320;PMS5003;38732;49.556;6.286;2023-03-08T02:50:08;34.50;25.75;13.75
51320;PMS5003;38732;49.556;6.286;2023-03-08T02:52:37;28.50;23.75;13.75
51320;PMS5003;38732;49.556;6.286;2023-03-08T02:55:05;23.00;20.00;12.00
51320;PMS5003;38732;49.556;6.286;2023-03-08T02:57:34;20.75;18.75;7.00
51320;PMS5003;38732;49.556;6.286;2023-03-08T03:00:02;24.75;22.00;12.00
51320;PMS5003;38732;49.556;6.286;2023-03-08T03:02:32;30.40;26.60;15.00
51320;PMS5003;38732;49.556;6.286;2023-03-08T03:05:02;27.40;25.00;13.00
51320;PMS5003;38732;49.556;6.286;2023-03-08T03:07:35;30.80;27.60;15.00
51320;PMS5003;38732;49.556;6.286;2023-03-08T03:10:09;33.80;30.00;16.60
51320;PMS5003;38732;49.556;6.286;2023-03-08T03:12:39;30.60;25.80;13.00
51320;PMS5003;38732;49.556;6.286;2023-03-08T03:15:08;26.75;20.50;11.00
51320;PMS5003;38732;49.556;6.286;2023-03-08T03:17:37;33.40;25.80;13.80
51320;PMS5003;38732;49.556;6.286;2023-03-08T03:20:06;31.50;26.75;13.00
51320;PMS5003;38732;49.556;6.286;2023-03-08T03:22:35;29.60;25.40;13.20
51320;PMS5003;38732;49.556;6.286;2023-03-08T03:25:04;31.50;24.25;13.00
51320;PMS5003;38732;49.556;6.286;2023-03-08T03:27:32;25.25;24.25;13.00
51320;PMS5003;38732;49.556;6.286;2023-03-08T03:30:01;38.00;31.75;16.50
51320;PMS5003;38732;49.556;6.286;2023-03-08T03:32:29;25.00;21.50;11.00
51320;PMS5003;38732;49.556;6.286;2023-03-08T03:34:57;36.00;27.25;16.00
51320;PMS5003;38732;49.556;6.286;2023-03-08T03:37:26;30.50;27.00;14.50
51320;PMS5003;38732;49.556;6.286;2023-03-08T03:39:54;26.50;22.25;12.00
51320;PMS5003;38732;49.556;6.286;2023-03-08T03:42:22;22.50;19.00;10.00
51320;PMS5003;38732;49.556;6.286;2023-03-08T03:44:50;23.25;20.25;13.00
51320;PMS5003;38732;49.556;6.286;2023-03-08T03:47:18;29.00;25.50;14.00
51320;PMS5003;38732;49.556;6.286;2023-03-08T03:49:47;35.50;30.50;16.00
51320;PMS5003;38732;49.556;6.286;2023-03-08T03:52:15;41.75;32.50;16.00
51320;PMS5003;38732;49.556;6.286;2023-03-08T03:54:43;36.00;29.50;13.50
51320;PMS5003;38732;49.556;6.286;2023-03-08T03:57:11;39.00;32.00;18.00
51320;PMS5003;38732;49.556;6.286;2023-03-08T03:59:39;29.00;27.25;13.00
51320;PMS5003;38732;49.556;6.286;2023-03-08T04:02:07;28.50;25.00;15.75
51320;PMS5003;38732;49.556;6.286;2023-03-08T04:04:36;31.50;28.50;18.00
51320;PMS5003;38732;49.556;6.286;2023-03-08T04:07:04;37.25;31.25;18.50
51320;PMS5003;38732;49.556;6.286;2023-03-08T04:09:32;33.50;29.25;12.50
51320;PMS5003;38732;49.556;6.286;2023-03-08T04:12:00;28.25;26.50;15.75
51320;PMS5003;38732;49.556;6.286;2023-03-08T04:14:28;37.50;31.00;15.75
51320;PMS5003;38732;49.556;6.286;2023-03-08T04:16:57;32.75;31.25;14.00
51320;PMS5003;38732;49.556;6.286;2023-03-08T04:19:25;34.25;33.25;15.00
51320;PMS5003;38732;49.556;6.286;2023-03-08T04:21:53;38.00;30.00;16.75
51320;PMS5003;38732;49.556;6.286;2023-03-08T04:24:21;33.00;32.00;18.00
51320;PMS5003;38732;49.556;6.286;2023-03-08T04:26:50;31.00;25.50;16.00
51320;PMS5003;38732;49.556;6.286;2023-03-08T04:29:18;32.00;28.25;15.00
51320;PMS5003;38732;49.556;6.286;2023-03-08T04:31:46;24.00;24.00;13.00
51320;PMS5003;38732;49.556;6.286;2023-03-08T04:34:14;30.50;26.50;15.25
51320;PMS5003;38732;49.556;6.286;2023-03-08T04:36:42;30.50;25.00;13.00
51320;PMS5003;38732;49.556;6.286;2023-03-08T04:39:10;32.75;28.50;15.25
51320;PMS5003;38732;49.556;6.286;2023-03-08T04:41:39;34.75;28.00;16.50
51320;PMS5003;38732;49.556;6.286;2023-03-08T04:44:07;34.00;30.50;18.00
51320;PMS5003;38732;49.556;6.286;2023-03-08T04:46:35;28.75;27.50;17.25
51320;PMS5003;38732;49.556;6.286;2023-03-08T04:49:03;36.00;31.50;19.00
51320;PMS5003;38732;49.556;6.286;2023-03-08T04:51:31;36.50;24.25;10.00
51320;PMS5003;38732;49.556;6.286;2023-03-08T04:54:00;31.75;27.50;13.75
51320;PMS5003;38732;49.556;6.286;2023-03-08T04:56:28;41.25;26.75;15.75
51320;PMS5003;38732;49.556;6.286;2023-03-08T04:58:56;20.25;17.75;12.50
51320;PMS5003;38732;49.556;6.286;2023-03-08T05:01:24;28.50;26.00;17.00
51320;PMS5003;38732;49.556;6.286;2023-03-08T05:03:52;30.00;22.50;16.00
51320;PMS5003;38732;49.556;6.286;2023-03-08T05:06:22;30.00;25.75;16.00
51320;PMS5003;38732;49.556;6.286;2023-03-08T05:08:53;33.00;27.80;15.40
51320;PMS5003;38732;49.556;6.286;2023-03-08T05:11:23;28.00;27.00;14.60
51320;PMS5003;38732;49.556;6.286;2023-03-08T05:13:53;29.80;25.40;16.20
51320;PMS5003;38732;49.556;6.286;2023-03-08T05:16:23;32.80;25.80;16.00
51320;PMS5003;38732;49.556;6.286;2023-03-08T05:18:52;35.60;27.00;16.60
51320;PMS5003;38732;49.556;6.286;2023-03-08T05:21:21;34.00;27.50;17.50
51320;PMS5003;38732;49.556;6.286;2023-03-08T05:23:49;28.75;26.50;16.75
51320;PMS5003;38732;49.556;6.286;2023-03-08T05:26:17;37.25;30.50;16.75
51320;PMS5003;38732;49.556;6.286;2023-03-08T05:28:46;33.75;32.50;19.50
51320;PMS5003;38732;49.556;6.286;2023-03-08T05:31:15;29.00;25.50;17.00
51320;PMS5003;38732;49.556;6.286;2023-03-08T05:33:46;37.20;30.20;17.80
51320;PMS5003;38732;49.556;6.286;2023-03-08T05:36:17;36.40;31.80;17.00
51320;PMS5003;38732;49.556;6.286;2023-03-08T05:38:46;35.00;29.00;17.20
51320;PMS5003;38732;49.556;6.286;2023-03-08T05:41:14;32.50;30.25;15.00
51320;PMS5003;38732;49.556;6.286;2023-03-08T05:43:43;36.50;30.25;17.50
51320;PMS5003;38732;49.556;6.286;2023-03-08T05:46:15;40.75;28.75;21.00
51320;PMS5003;38732;49.556;6.286;2023-03-08T05:48:44;36.20;32.80;15.60
51320;PMS5003;38732;49.556;6.286;2023-03-08T05:51:13;35.75;33.00;19.50
51320;PMS5003;38732;49.556;6.286;2023-03-08T05:53:43;37.80;31.20;18.80
51320;PMS5003;38732;49.556;6.286;2023-03-08T05:56:13;35.00;30.75;21.00
51320;PMS5003;38732;49.556;6.286;2023-03-08T05:58:46;30.40;27.20;18.20
51320;PMS5003;38732;49.556;6.286;2023-03-08T06:01:15;34.75;29.75;18.50
51320;PMS5003;38732;49.556;6.286;2023-03-08T06:03:49;33.20;28.00;16.60
51320;PMS5003;38732;49.556;6.286;2023-03-08T06:06:19;33.00;27.60;13.40
51320;PMS5003;38732;49.556;6.286;2023-03-08T06:08:48;37.20;29.20;17.80
51320;PMS5003;38732;49.556;6.286;2023-03-08T06:11:17;33.75;30.00;17.50
51320;PMS5003;38732;49.556;6.286;2023-03-08T06:13:45;36.25;29.50;16.00
51320;PMS5003;38732;49.556;6.286;2023-03-08T06:16:13;41.75;30.50;18.25
51320;PMS5003;38732;49.556;6.286;2023-03-08T06:18:42;41.50;33.50;23.00
51320;PMS5003;38732;49.556;6.286;2023-03-08T06:21:17;36.25;31.50;18.00
51320;PMS5003;38732;49.556;6.286;2023-03-08T06:23:46;31.20;22.60;10.00
51320;PMS5003;38732;49.556;6.286;2023-03-08T06:26:15;36.75;28.50;16.00
51320;PMS5003;38732;49.556;6.286;2023-03-08T06:28:43;36.00;33.25;19.00
51320;PMS5003;38732;49.556;6.286;2023-03-08T06:31:17;31.50;27.00;15.00
51320;PMS5003;38732;49.556;6.286;2023-03-08T06:33:46;34.80;25.80;16.20
51320;PMS5003;38732;49.556;6.286;2023-03-08T06:36:15;30.75;28.25;15.75
51320;PMS5003;38732;49.556;6.286;2023-03-08T06:38:45;34.40;26.80;15.20
51320;PMS5003;38732;49.556;6.286;2023-03-08T06:41:14;38.75;31.50;17.00
51320;PMS5003;38732;49.556;6.286;2023-03-08T06:43:44;39.80;32.40;19.40
51320;PMS5003;38732;49.556;6.286;2023-03-08T06:46:13;37.25;28.25;19.00
51320;PMS5003;38732;49.556;6.286;2023-03-08T06:48:43;30.00;25.40;15.20
51320;PMS5003;38732;49.556;6.286;2023-03-08T06:51:12;36.00;29.40;13.00
51320;PMS5003;38732;49.556;6.286;2023-03-08T06:53:41;31.25;27.25;13.75
51320;PMS5003;38732;49.556;6.286;2023-03-08T06:56:10;27.50;22.75;14.00
51320;PMS5003;38732;49.556;6.286;2023-03-08T06:58:40;33.20;32.60;17.20
51320;PMS5003;38732;49.556;6.286;2023-03-08T07:01:09;36.00;31.00;15.20
51320;PMS5003;38732;49.556;6.286;2023-03-08T07:03:39;29.80;25.80;13.80
51320;PMS5003;38732;49.556;6.286;2023-03-08T07:06:08;27.25;24.75;15.00
51320;PMS5003;38732;49.556;6.286;2023-03-08T07:08:37;35.20;28.60;16.00
51320;PMS5003;38732;49.556;6.286;2023-03-08T07:11:05;33.25;29.50;15.50
51320;PMS5003;38732;49.556;6.286;2023-03-08T07:13:35;27.20;22.40;12.80
51320;PMS5003;38732;49.556;6.286;2023-03-08T07:16:05;22.20;18.00;10.80
51320;PMS5003;38732;49.556;6.286;2023-03-08T07:18:35;29.80;25.80;15.00
51320;PMS5003;38732;49.556;6.286;2023-03-08T07:21:04;36.00;34.75;20.25
51320;PMS5003;38732;49.556;6.286;2023-03-08T07:23:32;31.50;26.25;15.50
51320;PMS5003;38732;49.556;6.286;2023-03-08T07:26:07;28.50;23.00;14.50
51320;PMS5003;38732;49.556;6.286;2023-03-08T07:28:36;19.80;14.20;7.00
51320;PMS5003;38732;49.556;6.286;2023-03-08T07:31:04;36.50;29.50;13.50
51320;PMS5003;38732;49.556;6.286;2023-03-08T07:33:32;28.25;27.25;14.50
51320;PMS5003;38732;49.556;6.286;2023-03-08T07:36:00;41.00;24.25;13.00
51320;PMS5003;38732;49.556;6.286;2023-03-08T07:38:29;34.00;27.50;14.50
51320;PMS5003;38732;49.556;6.286;2023-03-08T07:40:57;33.25;29.00;18.75
51320;PMS5003;38732;49.556;6.286;2023-03-08T07:43:25;38.00;32.50;18.25
51320;PMS5003;38732;49.556;6.286;2023-03-08T07:45:53;28.25;23.00;15.00
51320;PMS5003;38732;49.556;6.286;2023-03-08T07:48:22;20.00;19.25;9.50
51320;PMS5003;38732;49.556;6.286;2023-03-08T07:50:50;26.00;25.00;12.75
51320;PMS5003;38732;49.556;6.286;2023-03-08T07:53:18;29.25;23.50;12.75
51320;PMS5003;38732;49.556;6.286;2023-03-08T07:55:46;16.25;16.25;9.00
51320;PMS5003;38732;49.556;6.286;2023-03-08T07:58:14;36.25;30.50;16.00
51320;PMS5003;38732;49.556;6.286;2023-03-08T08:00:42;30.00;23.00;15.00
51320;PMS5003;38732;49.556;6.286;2023-03-08T08:03:11;28.50;22.50;13.25
51320;PMS5003;38732;49.556;6.286;2023-03-08T08:05:39;25.50;24.25;13.50
51320;PMS5003;38732;49.556;6.286;2023-03-08T08:08:07;33.00;29.75;18.00
51320;PMS5003;38732;49.556;6.286;2023-03-08T08:10:35;30.75;25.50;16.00
51320;PMS5003;38732;49.556;6.286;2023-03-08T08:13:03;34.75;26.00;15.75
51320;PMS5003;38732;49.556;6.286;2023-03-08T08:15:32;27.50;25.50;13.50
51320;PMS5003;38732;49.556;6.286;2023-03-08T08:18:00;25.75;24.50;13.00
51320;PMS5003;38732;49.556;6.286;2023-03-08T08:20:28;26.50;19.50;9.75
51320;PMS5003;38732;49.556;6.286;2023-03-08T08:22:56;33.50;29.00;18.00
51320;PMS5003;38732;49.556;6.286;2023-03-08T08:25:25;27.25;23.50;16.00
51320;PMS5003;38732;49.556;6.286;2023-03-08T08:27:53;26.75;21.50;13.50
51320;PMS5003;38732;49.556;6.286;2023-03-08T08:30:21;24.25;23.00;13.50
51320;PMS5003;38732;49.556;6.286;2023-03-08T08:32:50;31.00;24.75;13.50
51320;PMS5003;38732;49.556;6.286;2023-03-08T08:35:18;26.50;21.50;13.00
51320;PMS5003;38732;49.556;6.286;2023-03-08T08:37:46;20.25;19.00;12.00
51320;PMS5003;38732;49.556;6.286;2023-03-08T08:40:14;27.50;24.00;15.00
51320;PMS5003;38732;49.556;6.286;2023-03-08T08:42:43;23.00;19.00;10.00
51320;PMS5003;38732;49.556;6.286;2023-03-08T08:45:11;27.00;24.50;13.00
51320;PMS5003;38732;49.556;6.286;2023-03-08T08:47:39;21.25;21.00;13.00
51320;PMS5003;38732;49.556;6.286;2023-03-08T08:50:07;19.00;18.50;10.50
51320;PMS5003;38732;49.556;6.286;2023-03-08T08:52:36;24.00;19.75;6.75
51320;PMS5003;38732;49.556;6.286;2023-03-08T08:55:04;31.75;24.25;13.25
51320;PMS5003;38732;49.556;6.286;2023-03-08T08:57:33;22.75;18.50;11.50
51320;PMS5003;38732;49.556;6.286;2023-03-08T09:00:02;27.75;25.25;12.75
51320;PMS5003;38732;49.556;6.286;2023-03-08T09:02:30;36.40;32.00;19.40
51320;PMS5003;38732;49.556;6.286;2023-03-08T09:04:59;24.00;24.00;13.00
51320;PMS5003;38732;49.556;6.286;2023-03-08T09:07:27;24.25;23.50;15.25
51320;PMS5003;38732;49.556;6.286;2023-03-08T09:09:55;26.75;22.00;13.00
51320;PMS5003;38732;49.556;6.286;2023-03-08T09:12:23;23.00;19.25;10.00
51320;PMS5003;38732;49.556;6.286;2023-03-08T09:14:52;27.25;22.00;12.00
51320;PMS5003;38732;49.556;6.286;2023-03-08T09:17:20;23.00;21.50;13.00
51320;PMS5003;38732;49.556;6.286;2023-03-08T09:19:48;29.25;25.25;13.75
51320;PMS5003;38732;49.556;6.286;2023-03-08T09:22:16;26.00;21.50;12.75
51320;PMS5003;38732;49.556;6.286;2023-03-08T09:24:47;27.25;24.50;16.00
51320;PMS5003;38732;49.556;6.286;2023-03-08T09:27:16;24.20;20.00;13.80
51320;PMS5003;38732;49.556;6.286;2023-03-08T09:29:44;28.50;19.00;12.00
51320;PMS5003;38732;49.556;6.286;2023-03-08T09:32:12;25.75;25.00;15.25
51320;PMS5003;38732;49.556;6.286;2023-03-08T09:34:41;20.75;19.50;12.50
51320;PMS5003;38732;49.556;6.286;2023-03-08T09:37:10;29.25;24.00;12.50
51320;PMS5003;38732;49.556;6.286;2023-03-08T09:39:38;27.80;22.00;16.00
51320;PMS5003;38732;49.556;6.286;2023-03-08T09:42:14;34.50;28.00;17.25
51320;PMS5003;38732;49.556;6.286;2023-03-08T09:47:53;23.60;23.60;15.40
51320;PMS5003;38732;49.556;6.286;2023-03-08T09:53:18;25.40;23.00;13.60
51320;PMS5003;38732;49.556;6.286;2023-03-08T09:55:52;28.00;24.00;14.60
51320;PMS5003;38732;49.556;6.286;2023-03-08T09:58:27;26.40;22.40;14.00
51320;PMS5003;38732;49.556;6.286;2023-03-08T10:01:02;34.80;24.00;15.80
51320;PMS5003;38732;49.556;6.286;2023-03-08T10:03:59;30.80;27.40;16.40
51320;PMS5003;38732;49.556;6.286;2023-03-08T10:09:54;28.20;24.00;14.00
51320;PMS5003;38732;49.556;6.286;2023-03-08T10:15:13;32.40;28.60;14.20
51320;PMS5003;38732;49.556;6.286;2023-03-08T10:17:48;26.20;19.20;12.40
51320;PMS5003;38732;49.556;6.286;2023-03-08T10:20:23;19.80;19.00;11.00
51320;PMS5003;38732;49.556;6.286;2023-03-08T10:23:14;23.40;18.20;12.80
51320;PMS5003;38732;49.556;6.286;2023-03-08T10:25:45;21.00;21.00;14.00
51320;PMS5003;38732;49.556;6.286;2023-03-08T10:28:18;22.20;22.20;14.80
51320;PMS5003;38732;49.556;6.286;2023-03-08T10:30:49;19.20;19.20;12.80
51320;PMS5003;38732;49.556;6.286;2023-03-08T10:33:20;26.80;23.80;14.00
51320;PMS5003;38732;49.556;6.286;2023-03-08T10:36:05;27.40;21.60;13.20
51320;PMS5003;38732;49.556;6.286;2023-03-08T10:38:36;18.40;17.60;8.60
51320;PMS5003;38732;49.556;6.286;2023-03-08T10:41:05;19.00;16.00;8.25
51320;PMS5003;38732;49.556;6.286;2023-03-08T10:43:50;26.20;22.00;14.80
51320;PMS5003;38732;49.556;6.286;2023-03-08T10:46:30;29.80;22.00;13.60
51320;PMS5003;38732;49.556;6.286;2023-03-08T10:49:08;25.00;22.80;15.40
51320;PMS5003;38732;49.556;6.286;2023-03-08T10:51:50;27.20;24.60;14.40
51320;PMS5003;38732;49.556;6.286;2023-03-08T10:54:20;39.80;33.60;21.40
51320;PMS5003;38732;49.556;6.286;2023-03-08T10:56:55;37.50;34.25;18.50
51320;PMS5003;38732;49.556;6.286;2023-03-08T10:59:27;23.20;23.20;18.00
51320;PMS5003;38732;49.556;6.286;2023-03-08T11:04:54;39.40;34.00;22.20
51320;PMS5003;38732;49.556;6.286;2023-03-08T11:07:25;31.40;29.00;16.00
51320;PMS5003;38732;49.556;6.286;2023-03-08T11:12:38;30.40;29.80;17.80
51320;PMS5003;38732;49.556;6.286;2023-03-08T11:15:13;37.75;33.75;20.50
51320;PMS5003;38732;49.556;6.286;2023-03-08T11:17:51;23.80;19.00;10.00
51320;PMS5003;38732;49.556;6.286;2023-03-08T11:20:26;26.80;24.40;14.60
51320;PMS5003;38732;49.556;6.286;2023-03-08T11:23:14;30.00;22.80;15.40
51320;PMS5003;38732;49.556;6.286;2023-03-08T11:25:52;21.20;20.00;13.00
51320;PMS5003;38732;49.556;6.286;2023-03-08T11:36:54;25.80;23.80;15.80
51320;PMS5003;38732;49.556;6.286;2023-03-08T11:39:24;16.80;16.40;9.80
51320;PMS5003;38732;49.556;6.286;2023-03-08T11:45:09;12.80;12.80;7.80
51320;PMS5003;38732;49.556;6.286;2023-03-08T11:50:44;10.80;10.00;6.40
51320;PMS5003;38732;49.556;6.286;2023-03-08T11:56:42;7.80;5.60;2.80
51320;PMS5003;38732;49.556;6.286;2023-03-08T11:59:23;6.80;5.80;3.40
51320;PMS5003;38732;49.556;6.286;2023-03-08T12:02:08;7.80;7.40;4.20
51320;PMS5003;38732;49.556;6.286;2023-03-08T12:04:54;2.60;2.60;2.00
51320;PMS5003;38732;49.556;6.286;2023-03-08T12:10:32;5.00;5.00;2.20
51320;PMS5003;38732;49.556;6.286;2023-03-08T12:24:10;2.60;2.60;2.00
51320;PMS5003;38732;49.556;6.286;2023-03-08T12:26:54;2.60;2.00;1.00
51320;PMS5003;38732;49.556;6.286;2023-03-08T12:29:34;3.00;3.00;2.00
51320;PMS5003;38732;49.556;6.286;2023-03-08T12:32:07;2.00;2.00;2.00
51320;PMS5003;38732;49.556;6.286;2023-03-08T12:34:40;3.40;3.40;2.00
51320;PMS5003;38732;49.556;6.286;2023-03-08T12:37:18;2.20;2.20;1.20
51320;PMS5003;38732;49.556;6.286;2023-03-08T12:43:03;2.00;2.00;1.00
51320;PMS5003;38732;49.556;6.286;2023-03-08T12:45:33;1.80;1.80;1.00
51320;PMS5003;38732;49.556;6.286;2023-03-08T12:50:39;3.20;3.20;1.00
51320;PMS5003;38732;49.556;6.286;2023-03-08T12:53:25;3.40;1.00;0.00
51320;PMS5003;38732;49.556;6.286;2023-03-08T12:56:02;3.80;3.80;1.20
51320;PMS5003;38732;49.556;6.286;2023-03-08T12:58:50;2.00;2.00;1.00
51320;PMS5003;38732;49.556;6.286;2023-03-08T13:04:24;4.60;4.60;2.00
51320;PMS5003;38732;49.556;6.286;2023-03-08T13:12:41;2.00;2.00;1.40
51320;PMS5003;38732;49.556;6.286;2023-03-08T13:15:28;1.80;1.80;1.20
51320;PMS5003;38732;49.556;6.286;2023-03-08T13:17:57;2.00;2.00;1.00
51320;PMS5003;38732;49.556;6.286;2023-03-08T13:20:27;1.00;1.00;1.00
51320;PMS5003;38732;49.556;6.286;2023-03-08T13:23:17;2.20;2.20;1.00
51320;PMS5003;38732;49.556;6.286;2023-03-08T13:28:25;2.60;1.60;1.00
51320;PMS5003;38732;49.556;6.286;2023-03-08T13:31:03;1.00;1.00;0.80
51320;PMS5003;38732;49.556;6.286;2023-03-08T13:33:47;1.60;1.20;0.00
51320;PMS5003;38732;49.556;6.286;2023-03-08T13:36:27;0.00;0.00;0.00
51320;PMS5003;38732;49.556;6.286;2023-03-08T13:39:04;1.60;1.00;0.00
51320;PMS5003;38732;49.556;6.286;2023-03-08T13:41:36;1.40;1.40;1.00
51320;PMS5003;38732;49.556;6.286;2023-03-08T13:44:11;1.60;1.60;1.00
51320;PMS5003;38732;49.556;6.286;2023-03-08T13:46:42;1.20;1.20;0.80
51320;PMS5003;38732;49.556;6.286;2023-03-08T13:49:12;1.00;1.00;1.00
51320;PMS5003;38732;49.556;6.286;2023-03-08T13:51:41;1.40;1.40;1.00
51320;PMS5003;38732;49.556;6.286;2023-03-08T13:54:18;2.60;2.60;1.00
51320;PMS5003;38732;49.556;6.286;2023-03-08T13:57:03;3.80;2.40;1.40
51320;PMS5003;38732;49.556;6.286;2023-03-08T13:59:33;1.80;1.80;1.00
51320;PMS5003;38732;49.556;6.286;2023-03-08T14:02:02;2.00;2.00;1.00
51320;PMS5003;38732;49.556;6.286;2023-03-08T14:04:33;3.00;2.00;1.00
51320;PMS5003;38732;49.556;6.286;2023-03-08T14:07:03;5.60;5.60;2.80
51320;PMS5003;38732;49.556;6.286;2023-03-08T14:09:31;4.40;3.40;2.00
51320;PMS5003;38732;49.556;6.286;2023-03-08T14:12:01;4.50;4.50;2.00
51320;PMS5003;38732;49.556;6.286;2023-03-08T14:14:31;2.80;2.80;1.60
51320;PMS5003;38732;49.556;6.286;2023-03-08T14:17:02;3.80;3.80;1.80
51320;PMS5003;38732;49.556;6.286;2023-03-08T14:19:32;5.20;5.00;2.80
51320;PMS5003;38732;49.556;6.286;2023-03-08T14:22:14;6.00;6.00;3.00
51320;PMS5003;38732;49.556;6.286;2023-03-08T14:24:48;5.40;5.40;3.00
51320;PMS5003;38732;49.556;6.286;2023-03-08T14:29:47;6.40;4.20;3.00
51320;PMS5003;38732;49.556;6.286;2023-03-08T14:34:44;3.20;3.20;2.60
51320;PMS5003;38732;49.556;6.286;2023-03-08T14:37:24;6.40;5.40;1.80
51320;PMS5003;38732;49.556;6.286;2023-03-08T14:39:55;6.20;4.60;3.00
51320;PMS5003;38732;49.556;6.286;2023-03-08T14:42:47;5.60;4.20;2.00
51320;PMS5003;38732;49.556;6.286;2023-03-08T14:45:29;3.00;3.00;1.00
51320;PMS5003;38732;49.556;6.286;2023-03-08T14:48:01;3.40;2.60;1.00
51320;PMS5003;38732;49.556;6.286;2023-03-08T14:50:51;4.00;4.00;2.00
51320;PMS5003;38732;49.556;6.286;2023-03-08T14:53:29;2.00;2.00;1.80
51320;PMS5003;38732;49.556;6.286;2023-03-08T14:56:06;2.20;2.20;1.00
51320;PMS5003;38732;49.556;6.286;2023-03-08T14:58:40;4.60;3.20;2.00
51320;PMS5003;38732;49.556;6.286;2023-03-08T15:01:29;2.20;2.20;1.00
51320;PMS5003;38732;49.556;6.286;2023-03-08T15:04:00;2.40;2.40;1.00
51320;PMS5003;38732;49.556;6.286;2023-03-08T15:06:33;1.80;1.80;0.80
51320;PMS5003;38732;49.556;6.286;2023-03-08T15:09:05;2.00;1.80;1.00
51320;PMS5003;38732;49.556;6.286;2023-03-08T15:11:34;3.00;3.00;2.00
51320;PMS5003;38732;49.556;6.286;2023-03-08T15:14:03;5.00;2.75;1.00
51320;PMS5003;38732;49.556;6.286;2023-03-08T15:16:31;3.25;3.25;3.00
51320;PMS5003;38732;49.556;6.286;2023-03-08T15:18:59;3.00;2.00;0.00
51320;PMS5003;38732;49.556;6.286;2023-03-08T15:21:28;3.00;3.00;2.00
51320;PMS5003;38732;49.556;6.286;2023-03-08T15:23:56;2.00;2.00;1.00
51320;PMS5003;38732;49.556;6.286;2023-03-08T15:26:26;6.40;6.40;3.00
51320;PMS5003;38732;49.556;6.286;2023-03-08T15:28:56;4.20;3.00;1.80
51320;PMS5003;38732;49.556;6.286;2023-03-08T15:31:26;25.80;23.00;14.60
51320;PMS5003;38732;49.556;6.286;2023-03-08T15:33:54;8.00;8.00;5.75
51320;PMS5003;38732;49.556;6.286;2023-03-08T15:36:22;3.00;3.00;2.00
51320;PMS5003;38732;49.556;6.286;2023-03-08T15:38:50;5.75;5.75;4.00